Time;durP1;ratioP1;P1;durP2;ratioP2;P2;SDS_P1;SDS_P2;PMS_P1;PMS_P2;Temp;Humidity;BMP_temperature;BMP_pressure;BME280_temperature;BME280_humidity;BME280_pressure;Samples;Min_cycle;Max_cycle;Signal;HPM_P1;HPM_P2
2021/03/14 00:00:20;;;;;;;;;;;16.80;61.70;;;;;;5054665;28;20373;-77
2021/03/14 00:02:45;;;;;;;;;;;16.80;61.70;;;;;;5074363;28;20012;-76
2021/03/14 00:05:11;;;;;;;;;;;16.80;61.70;;;;;;5074285;28;20012;-77
2021/03/14 00:07:37;;;;;;;;;;;16.90;61.70;;;;;;5078025;28;20273;-76
2021/03/14 00:10:03;;;;;;;;;;;16.80;61.60;;;;;;5072494;28;20362;-77
2021/03/14 00:12:28;;;;;;;;;;;16.80;61.60;;;;;;5068185;28;19923;-77
2021/03/14 00:14:54;;;;;;;;;;;16.80;61.70;;;;;;5052882;28;19921;-77
2021/03/14 00:17:20;;;;;;;;;;;16.80;61.70;;;;;;5074539;28;19912;-77
2021/03/14 00:19:45;;;;;;;;;;;16.80;61.70;;;;;;5057475;28;19913;-77
2021/03/14 00:22:10;;;;;;;;;;;16.80;61.70;;;;;;5072854;28;19920;-78
2021/03/14 00:24:36;;;;;;;;;;;16.80;61.60;;;;;;5074503;28;19921;-76
2021/03/14 00:27:02;;;;;;;;;;;16.80;61.60;;;;;;5067819;28;20401;-76
2021/03/14 00:29:28;;;;;;;;;;;16.80;61.60;;;;;;5060505;28;20011;-77
2021/03/14 00:31:53;;;;;;;;;;;16.80;61.60;;;;;;5031708;28;19913;-77
2021/03/14 00:34:19;;;;;;;;;;;16.80;61.60;;;;;;5057451;28;19958;-77
2021/03/14 00:36:44;;;;;;;;;;;16.80;61.60;;;;;;5050356;28;19963;-76
2021/03/14 00:39:10;;;;;;;;;;;16.80;61.60;;;;;;5036554;28;20402;-76
2021/03/14 00:41:35;;;;;;;;;;;16.80;61.60;;;;;;5034381;28;19916;-77
2021/03/14 00:44:01;;;;;;;;;;;16.80;61.70;;;;;;5035252;28;19917;-77
2021/03/14 00:46:28;;;;;;;;;;;16.80;61.60;;;;;;5034221;28;20299;-76
2021/03/14 00:48:59;;;;;;;;;;;16.80;61.60;;;;;;5052086;28;19921;-77
2021/03/14 00:51:24;;;;;;;;;;;16.80;61.60;;;;;;5037247;28;19920;-76
2021/03/14 00:53:51;;;;;;;;;;;16.80;61.60;;;;;;5035206;28;19912;-75
2021/03/14 00:56:17;;;;;;;;;;;16.80;61.60;;;;;;5056604;28;20354;-76
2021/03/14 00:58:49;;;;;;;;;;;16.80;61.60;;;;;;5031307;28;20004;-76
2021/03/14 01:01:14;;;;;;;;;;;16.80;61.60;;;;;;5041330;28;19912;-77
2021/03/14 01:03:40;;;;;;;;;;;16.80;61.60;;;;;;5052056;28;19916;-77
2021/03/14 01:06:05;;;;;;;;;;;16.80;61.60;;;;;;5036317;28;19917;-77
2021/03/14 01:08:31;;;;;;;;;;;16.80;61.60;;;;;;5051257;28;19920;-76
2021/03/14 01:10:57;;;;;;;;;;;16.80;61.60;;;;;;5025640;28;20374;-77
2021/03/14 01:13:22;;;;;;;;;;;16.80;61.60;;;;;;5049915;28;19921;-76
2021/03/14 01:15:48;;;;;;;;;;;16.80;61.60;;;;;;5055009;28;20000;-76
2021/03/14 01:18:13;;;;;;;;;;;16.80;61.60;;;;;;5052993;28;19913;-77
2021/03/14 01:20:39;;;;;;;;;;;16.80;61.60;;;;;;5051262;28;19939;-76
2021/03/14 01:23:04;;;;;;;;;;;16.80;61.60;;;;;;5051029;28;19916;-77
2021/03/14 01:25:35;;;;;;;;;;;16.80;61.60;;;;;;5047174;28;19928;-77
2021/03/14 01:28:02;;;;;;;;;;;16.80;61.60;;;;;;5048816;28;19921;-76
2021/03/14 01:30:27;;;;;;;;;;;16.80;61.60;;;;;;5039183;28;19925;-77
2021/03/14 01:32:53;;;;;;;;;;;16.80;61.60;;;;;;5053925;28;19959;-77
2021/03/14 01:35:18;;;;;;;;;;;16.80;61.60;;;;;;5052019;28;19913;-77
2021/03/14 01:37:45;;;;;;;;;;;16.80;61.60;;;;;;5036485;28;19929;-77
2021/03/14 01:40:11;;;;;;;;;;;16.80;61.60;;;;;;5055004;28;19952;-78
2021/03/14 01:42:36;;;;;;;;;;;16.80;61.60;;;;;;5039123;28;19966;-77
2021/03/14 01:45:05;;;;;;;;;;;16.80;61.60;;;;;;5048138;28;19967;-76
2021/03/14 01:47:35;;;;;;;;;;;16.80;61.60;;;;;;5051495;28;19921;-77
2021/03/14 01:50:04;;;;;;;;;;;16.80;61.60;;;;;;5028232;28;20428;-76
2021/03/14 01:52:31;;;;;;;;;;;16.80;61.60;;;;;;5051691;28;20008;-76
2021/03/14 01:54:56;;;;;;;;;;;16.80;61.60;;;;;;5051199;28;19916;-76
2021/03/14 01:57:22;;;;;;;;;;;16.80;61.70;;;;;;5045685;28;19967;-76
2021/03/14 02:00:01;;;;;;;;;;;16.80;61.70;;;;;;5043914;28;19952;-76
2021/03/14 02:02:32;;;;;;;;;;;16.80;61.60;;;;;;5019567;28;19921;-75
2021/03/14 02:05:10;;;;;;;;;;;16.80;61.60;;;;;;5041366;28;19917;-76
2021/03/14 02:07:38;;;;;;;;;;;16.80;61.70;;;;;;5035187;28;19944;-77
2021/03/14 02:10:04;;;;;;;;;;;16.80;61.60;;;;;;5029877;28;19920;-76
2021/03/14 02:12:33;;;;;;;;;;;16.80;61.60;;;;;;5050146;28;20006;-75
2021/03/14 02:15:00;;;;;;;;;;;16.80;61.70;;;;;;5034521;28;19935;-77
2021/03/14 02:17:28;;;;;;;;;;;16.80;61.60;;;;;;5030549;28;19920;-76
2021/03/14 02:19:59;;;;;;;;;;;16.80;61.60;;;;;;5052517;28;19913;-75
2021/03/14 02:22:25;;;;;;;;;;;16.80;61.60;;;;;;5046783;28;19917;-75
2021/03/14 02:24:55;;;;;;;;;;;16.80;61.60;;;;;;5044966;28;20365;-76
2021/03/14 02:27:21;;;;;;;;;;;16.70;61.60;;;;;;5045279;28;19921;-75
2021/03/14 02:29:46;;;;;;;;;;;16.80;61.60;;;;;;5054685;28;19935;-75
2021/03/14 02:32:13;;;;;;;;;;;16.80;61.60;;;;;;5073893;28;19919;-76
2021/03/14 02:34:42;;;;;;;;;;;16.80;61.60;;;;;;5071578;28;20366;-76
2021/03/14 02:37:08;;;;;;;;;;;16.80;61.60;;;;;;5053548;28;19925;-76
2021/03/14 02:39:36;;;;;;;;;;;16.80;61.60;;;;;;5046644;28;20373;-75
2021/03/14 02:42:02;;;;;;;;;;;16.70;61.70;;;;;;5052894;28;19959;-76
2021/03/14 02:44:29;;;;;;;;;;;16.80;61.60;;;;;;5070192;28;19924;-76
2021/03/14 02:46:55;;;;;;;;;;;16.80;61.60;;;;;;5050837;28;19913;-75
2021/03/14 02:49:21;;;;;;;;;;;16.80;61.60;;;;;;5053153;28;19912;-75
2021/03/14 02:51:47;;;;;;;;;;;16.80;61.60;;;;;;5066889;28;19940;-75
2021/03/14 02:54:18;;;;;;;;;;;16.80;61.60;;;;;;5048634;28;20389;-75
2021/03/14 02:56:45;;;;;;;;;;;16.80;61.60;;;;;;5068841;28;19934;-76
2021/03/14 02:59:14;;;;;;;;;;;16.70;61.60;;;;;;5070009;28;19935;-75
2021/03/14 03:01:39;;;;;;;;;;;16.70;61.60;;;;;;5050493;28;19913;-75
2021/03/14 03:04:05;;;;;;;;;;;16.70;61.60;;;;;;5068284;28;20281;-75
2021/03/14 03:06:31;;;;;;;;;;;16.70;61.60;;;;;;5069785;28;19923;-76
2021/03/14 03:08:57;;;;;;;;;;;16.70;61.70;;;;;;5051233;28;20012;-76
2021/03/14 03:11:23;;;;;;;;;;;16.70;61.60;;;;;;5049610;28;20008;-76
2021/03/14 03:13:49;;;;;;;;;;;16.70;61.60;;;;;;5063288;28;19919;-76
2021/03/14 03:16:16;;;;;;;;;;;16.70;61.60;;;;;;5064696;28;19912;-75
2021/03/14 03:18:42;;;;;;;;;;;16.80;61.60;;;;;;5053837;28;19920;-76
2021/03/14 03:21:08;;;;;;;;;;;16.70;61.60;;;;;;5053930;28;19912;-75
2021/03/14 03:23:36;;;;;;;;;;;16.70;61.60;;;;;;5051947;28;19917;-76
2021/03/14 03:26:03;;;;;;;;;;;16.70;61.60;;;;;;5068874;28;19916;-76
2021/03/14 03:28:28;;;;;;;;;;;16.70;61.60;;;;;;5065823;28;19920;-76
2021/03/14 03:30:54;;;;;;;;;;;16.70;61.60;;;;;;5045123;28;19924;-76
2021/03/14 03:33:19;;;;;;;;;;;16.70;61.60;;;;;;5051526;28;19917;-76
2021/03/14 03:35:50;;;;;;;;;;;16.70;61.60;;;;;;5052083;28;19913;-77
2021/03/14 03:38:16;;;;;;;;;;;16.70;61.70;;;;;;5070189;28;20315;-75
2021/03/14 03:40:41;;;;;;;;;;;16.70;61.60;;;;;;5064886;28;19923;-77
2021/03/14 03:43:22;;;;;;;;;;;16.70;61.60;;;;;;5062679;28;19921;-76
2021/03/14 03:45:49;;;;;;;;;;;16.70;61.60;;;;;;5061852;28;20389;-77
2021/03/14 03:48:18;;;;;;;;;;;16.70;61.60;;;;;;5071135;28;19974;-77
2021/03/14 03:50:47;;;;;;;;;;;16.70;61.60;;;;;;5066962;28;19912;-78
2021/03/14 03:53:13;;;;;;;;;;;16.70;61.60;;;;;;5066904;28;19913;-75
2021/03/14 03:55:39;;;;;;;;;;;16.70;61.60;;;;;;5053248;28;20417;-76
2021/03/14 03:58:05;;;;;;;;;;;16.70;61.70;;;;;;5065351;28;20286;-76
2021/03/14 04:00:31;;;;;;;;;;;16.70;61.70;;;;;;5051371;28;19917;-76
2021/03/14 04:03:00;;;;;;;;;;;16.70;61.70;;;;;;5069838;28;19928;-75
2021/03/14 04:05:26;;;;;;;;;;;16.70;61.70;;;;;;5068096;28;19916;-75
2021/03/14 04:07:52;;;;;;;;;;;16.70;61.70;;;;;;5062268;28;20338;-78
2021/03/14 04:10:19;;;;;;;;;;;16.70;61.70;;;;;;5067217;28;19912;-76
2021/03/14 04:12:46;;;;;;;;;;;16.70;61.60;;;;;;5069913;28;19912;-76
2021/03/14 04:15:12;;;;;;;;;;;16.70;61.70;;;;;;5067155;28;19912;-75
2021/03/14 04:17:39;;;;;;;;;;;16.70;61.60;;;;;;5067054;28;19966;-76
2021/03/14 04:20:09;;;;;;;;;;;16.70;61.60;;;;;;5053418;28;19913;-76
2021/03/14 04:22:35;;;;;;;;;;;16.70;61.70;;;;;;5062515;28;19917;-76
2021/03/14 04:25:01;;;;;;;;;;;16.70;61.60;;;;;;5054816;28;19962;-77
2021/03/14 04:27:27;;;;;;;;;;;16.70;61.70;;;;;;5054828;28;19944;-76
2021/03/14 04:29:54;;;;;;;;;;;16.70;61.60;;;;;;5050995;28;19920;-76
2021/03/14 04:32:21;;;;;;;;;;;16.70;61.60;;;;;;5055211;28;20326;-76
2021/03/14 04:34:47;;;;;;;;;;;16.70;61.60;;;;;;5055556;28;19916;-76
2021/03/14 04:37:13;;;;;;;;;;;16.70;61.60;;;;;;5073419;28;20403;-77
2021/03/14 04:39:38;;;;;;;;;;;16.70;61.60;;;;;;5052154;28;19920;-76
2021/03/14 04:42:04;;;;;;;;;;;16.70;61.60;;;;;;5070121;28;19919;-76
2021/03/14 04:44:30;;;;;;;;;;;16.70;61.60;;;;;;5056139;28;19925;-76
2021/03/14 04:46:57;;;;;;;;;;;16.70;61.60;;;;;;5069963;28;19916;-75
2021/03/14 04:49:22;;;;;;;;;;;16.70;61.60;;;;;;5073092;28;19920;-76
2021/03/14 04:51:49;;;;;;;;;;;16.70;61.60;;;;;;5068798;28;19916;-76
2021/03/14 04:54:19;;;;;;;;;;;16.70;61.60;;;;;;5070947;28;19965;-78
2021/03/14 04:56:50;;;;;;;;;;;16.70;61.60;;;;;;5066538;28;19913;-76
2021/03/14 04:59:17;;;;;;;;;;;16.70;61.50;;;;;;5067831;28;20010;-77
2021/03/14 05:01:47;;;;;;;;;;;16.70;61.60;;;;;;5072291;28;20009;-76
2021/03/14 05:04:14;;;;;;;;;;;16.70;61.60;;;;;;5067273;28;19924;-76
2021/03/14 05:06:46;;;;;;;;;;;16.70;61.50;;;;;;5071943;28;20370;-76
2021/03/14 05:09:13;;;;;;;;;;;16.70;61.60;;;;;;5054164;28;19913;-76
2021/03/14 05:11:40;;;;;;;;;;;16.70;61.50;;;;;;5053634;28;20028;-76
2021/03/14 05:14:10;;;;;;;;;;;16.70;61.50;;;;;;5070442;28;20358;-76
2021/03/14 05:16:37;;;;;;;;;;;16.70;61.50;;;;;;5067106;28;19919;-76
2021/03/14 05:19:03;;;;;;;;;;;16.70;61.60;;;;;;5068654;28;19916;-76
2021/03/14 05:21:33;;;;;;;;;;;16.60;61.60;;;;;;5055239;28;20480;-77
2021/03/14 05:23:59;;;;;;;;;;;16.70;61.60;;;;;;5064045;28;19917;-75
2021/03/14 05:26:25;;;;;;;;;;;16.70;61.60;;;;;;5048052;28;19927;-76
2021/03/14 05:28:51;;;;;;;;;;;16.60;61.60;;;;;;5051546;28;20000;-73
2021/03/14 05:31:35;;;;;;;;;;;16.70;61.60;;;;;;5070551;28;19972;-73
2021/03/14 05:34:02;;;;;;;;;;;16.70;61.60;;;;;;5071064;28;19917;-73
2021/03/14 05:36:34;;;;;;;;;;;16.70;61.60;;;;;;5067414;28;19959;-73
2021/03/14 05:39:00;;;;;;;;;;;16.70;61.70;;;;;;5070109;28;20769;-73
2021/03/14 05:41:26;;;;;;;;;;;16.60;61.60;;;;;;5066667;28;19959;-73
2021/03/14 05:43:56;;;;;;;;;;;16.70;61.70;;;;;;5055186;28;19955;-73
2021/03/14 05:46:22;;;;;;;;;;;16.70;61.70;;;;;;5072826;28;20007;-73
2021/03/14 05:48:47;;;;;;;;;;;16.70;61.70;;;;;;5052492;28;20008;-73
2021/03/14 05:51:20;;;;;;;;;;;16.70;61.70;;;;;;5080773;28;19982;-74
2021/03/14 05:53:45;;;;;;;;;;;16.60;61.70;;;;;;5069474;28;19952;-73
2021/03/14 05:56:11;;;;;;;;;;;16.60;61.70;;;;;;5046842;28;19967;-73
2021/03/14 05:58:41;;;;;;;;;;;16.70;61.70;;;;;;5049795;28;19930;-73
2021/03/14 06:01:15;;;;;;;;;;;16.60;61.70;;;;;;5071121;28;19920;-73
2021/03/14 06:03:50;;;;;;;;;;;16.70;61.70;;;;;;5070958;28;20328;-73
2021/03/14 06:06:16;;;;;;;;;;;16.70;61.70;;;;;;5055601;28;19921;-73
2021/03/14 06:08:41;;;;;;;;;;;16.60;61.70;;;;;;5052945;28;20392;-73
2021/03/14 06:11:07;;;;;;;;;;;16.60;61.70;;;;;;5068364;28;19920;-73
2021/03/14 06:13:33;;;;;;;;;;;16.70;61.60;;;;;;5066636;28;19945;-73
2021/03/14 06:15:59;;;;;;;;;;;16.70;61.60;;;;;;5068408;28;19913;-73
2021/03/14 06:18:26;;;;;;;;;;;16.70;61.60;;;;;;5065442;28;20431;-73
2021/03/14 06:20:52;;;;;;;;;;;16.70;61.60;;;;;;5069794;28;19912;-74
2021/03/14 06:23:22;;;;;;;;;;;16.70;61.60;;;;;;5066664;28;20364;-73
2021/03/14 06:25:51;;;;;;;;;;;16.70;61.60;;;;;;5054609;28;19916;-73
2021/03/14 06:28:16;;;;;;;;;;;16.70;61.60;;;;;;5067048;28;20357;-73
2021/03/14 06:30:43;;;;;;;;;;;16.70;61.60;;;;;;5048172;28;19920;-73
2021/03/14 06:33:13;;;;;;;;;;;16.70;61.60;;;;;;5066432;28;19913;-73
2021/03/14 06:35:38;;;;;;;;;;;16.70;61.50;;;;;;5066248;28;19919;-73
2021/03/14 06:38:23;;;;;;;;;;;16.70;61.50;;;;;;5052692;28;19917;-73
2021/03/14 06:40:49;;;;;;;;;;;16.70;61.50;;;;;;5064527;28;19967;-73
2021/03/14 06:43:15;;;;;;;;;;;16.70;61.50;;;;;;5067874;28;19978;-72
2021/03/14 06:45:41;;;;;;;;;;;16.70;61.50;;;;;;5050442;28;19920;-74
2021/03/14 06:48:10;;;;;;;;;;;16.70;61.50;;;;;;5053213;28;20305;-73
2021/03/14 06:50:40;;;;;;;;;;;16.70;61.50;;;;;;5068174;28;20325;-73
2021/03/14 06:53:12;;;;;;;;;;;16.70;61.60;;;;;;5073092;28;19917;-73
2021/03/14 06:55:39;;;;;;;;;;;16.70;61.60;;;;;;5065836;28;20039;-73
2021/03/14 06:58:20;;;;;;;;;;;16.70;61.60;;;;;;5061154;28;19979;-73
2021/03/14 07:01:04;;;;;;;;;;;16.70;61.50;;;;;;5069152;28;20392;-73
2021/03/14 07:03:29;;;;;;;;;;;16.70;61.50;;;;;;5068603;28;20327;-73
2021/03/14 07:06:16;;;;;;;;;;;16.70;61.50;;;;;;5071094;28;19916;-73
2021/03/14 07:08:47;;;;;;;;;;;16.70;61.50;;;;;;5055806;28;20324;-73
2021/03/14 07:11:31;;;;;;;;;;;16.70;61.50;;;;;;5050681;28;19913;-73
2021/03/14 07:13:56;;;;;;;;;;;16.60;61.50;;;;;;5061073;28;20150;-75
2021/03/14 07:16:38;;;;;;;;;;;16.70;61.60;;;;;;5066276;28;20374;-73
2021/03/14 07:19:05;;;;;;;;;;;16.70;61.60;;;;;;5066592;28;19916;-73
2021/03/14 07:21:31;;;;;;;;;;;16.60;61.60;;;;;;5067774;28;19920;-73
2021/03/14 07:23:56;;;;;;;;;;;16.60;61.60;;;;;;5069489;28;19920;-73
2021/03/14 07:26:41;;;;;;;;;;;16.60;61.60;;;;;;5068496;28;20397;-73
2021/03/14 07:29:07;;;;;;;;;;;16.70;61.60;;;;;;5069934;28;19943;-75
2021/03/14 07:31:33;;;;;;;;;;;16.70;61.60;;;;;;5062830;28;19913;-73
2021/03/14 07:34:00;;;;;;;;;;;16.70;61.50;;;;;;5046678;28;19916;-73
2021/03/14 07:36:28;;;;;;;;;;;16.60;61.60;;;;;;5052433;28;19912;-73
2021/03/14 07:38:59;;;;;;;;;;;16.60;61.60;;;;;;5053619;28;19920;-74
2021/03/14 07:41:25;;;;;;;;;;;16.70;61.60;;;;;;5060942;28;20285;-74
2021/03/14 07:43:55;;;;;;;;;;;16.70;61.60;;;;;;5057561;28;19966;-74
2021/03/14 07:46:24;;;;;;;;;;;16.70;61.60;;;;;;5048457;28;19916;-73
2021/03/14 07:48:58;;;;;;;;;;;16.60;61.60;;;;;;5065423;28;19913;-73
2021/03/14 07:51:24;;;;;;;;;;;16.70;61.60;;;;;;5054301;28;19919;-74
2021/03/14 07:53:51;;;;;;;;;;;16.70;61.60;;;;;;5068934;28;19913;-75
2021/03/14 07:56:17;;;;;;;;;;;16.70;61.60;;;;;;5045772;28;20369;-75
2021/03/14 07:58:43;;;;;;;;;;;16.70;61.50;;;;;;5043716;28;19962;-74
2021/03/14 08:01:25;;;;;;;;;;;16.70;61.60;;;;;;5050152;28;19924;-75
2021/03/14 08:03:52;;;;;;;;;;;16.70;61.60;;;;;;5052690;28;19917;-74
2021/03/14 08:06:18;;;;;;;;;;;16.60;61.60;;;;;;5056572;28;19924;-75
2021/03/14 08:08:44;;;;;;;;;;;16.60;61.60;;;;;;5049165;28;20322;-80
2021/03/14 08:11:27;;;;;;;;;;;16.70;61.60;;;;;;5052486;28;19920;-81
2021/03/14 08:13:53;;;;;;;;;;;16.70;61.70;;;;;;5063704;28;19927;-81
2021/03/14 08:16:18;;;;;;;;;;;16.70;61.70;;;;;;5041857;28;19909;-80
2021/03/14 08:18:46;;;;;;;;;;;16.70;61.60;;;;;;5068841;28;19915;-81
2021/03/14 08:21:21;;;;;;;;;;;16.70;61.70;;;;;;5059439;28;19913;-82
2021/03/14 08:24:05;;;;;;;;;;;16.70;61.60;;;;;;5067285;28;19916;-81
2021/03/14 08:26:32;;;;;;;;;;;16.70;61.60;;;;;;5075375;28;19921;-82
2021/03/14 08:29:24;;;;;;;;;;;16.80;61.50;;;;;;5070765;28;19955;-82
2021/03/14 08:31:53;;;;;;;;;;;16.80;61.40;;;;;;5038223;28;19920;-82
2021/03/14 08:34:37;;;;;;;;;;;16.80;61.30;;;;;;5057106;28;19916;-81
2021/03/14 08:37:10;;;;;;;;;;;16.80;61.30;;;;;;5030543;28;19913;-81
2021/03/14 08:39:40;;;;;;;;;;;16.80;61.30;;;;;;5056507;28;19909;-82
2021/03/14 08:42:07;;;;;;;;;;;16.80;61.30;;;;;;5057110;28;19917;-82
2021/03/14 08:44:44;;;;;;;;;;;16.80;61.30;;;;;;5035996;28;19963;-83
2021/03/14 08:47:31;;;;;;;;;;;16.80;61.30;;;;;;5035622;28;19917;-82
2021/03/14 08:49:57;;;;;;;;;;;16.80;61.40;;;;;;5047686;28;19920;-81
2021/03/14 08:52:24;;;;;;;;;;;16.80;61.50;;;;;;5048115;28;20317;-82
2021/03/14 08:55:03;;;;;;;;;;;16.80;61.60;;;;;;5050447;28;19916;-82
2021/03/14 08:57:28;;;;;;;;;;;16.80;61.60;;;;;;5054987;28;19987;-82
2021/03/14 08:59:55;;;;;;;;;;;16.80;61.60;;;;;;5049048;28;19921;-82
2021/03/14 09:02:22;;;;;;;;;;;16.80;61.70;;;;;;5030346;28;19913;-81
2021/03/14 09:04:51;;;;;;;;;;;16.80;61.60;;;;;;5038771;28;20349;-82
2021/03/14 09:07:17;;;;;;;;;;;16.80;61.50;;;;;;5064801;28;19913;-82
2021/03/14 09:09:50;;;;;;;;;;;16.80;61.50;;;;;;5036272;28;19996;-76
2021/03/14 09:12:17;;;;;;;;;;;16.80;61.50;;;;;;5047648;28;19913;-79
2021/03/14 09:14:51;;;;;;;;;;;16.80;61.50;;;;;;5036224;28;20389;-79
2021/03/14 09:17:21;;;;;;;;;;;16.80;61.40;;;;;;5036568;28;19941;-79
2021/03/14 09:19:50;;;;;;;;;;;16.80;61.40;;;;;;5036393;28;19908;-79
2021/03/14 09:22:27;;;;;;;;;;;16.80;61.30;;;;;;5053397;28;19944;-79
2021/03/14 09:24:58;;;;;;;;;;;16.90;61.30;;;;;;5052967;28;19912;-79
2021/03/14 09:27:28;;;;;;;;;;;16.90;61.10;;;;;;5028291;28;19920;-78
2021/03/14 09:29:58;;;;;;;;;;;17.00;61.10;;;;;;5046493;28;19920;-78
2021/03/14 09:32:25;;;;;;;;;;;17.00;61.00;;;;;;5055522;28;19935;-78
2021/03/14 09:35:09;;;;;;;;;;;17.00;61.00;;;;;;5053095;28;19913;-79
2021/03/14 09:37:40;;;;;;;;;;;17.00;60.90;;;;;;5058835;28;20358;-79
2021/03/14 09:40:41;;;;;;;;;;;17.00;60.90;;;;;;5053045;28;19955;-78
2021/03/14 09:43:20;;;;;;;;;;;17.00;60.90;;;;;;5045630;28;19973;-79
2021/03/14 09:45:56;;;;;;;;;;;17.00;60.80;;;;;;5051823;28;19920;-80
2021/03/14 09:48:23;;;;;;;;;;;17.00;60.80;;;;;;5070912;28;19913;-78
2021/03/14 09:50:58;;;;;;;;;;;17.00;60.70;;;;;;5066735;28;19912;-79
2021/03/14 09:53:27;;;;;;;;;;;17.00;60.70;;;;;;5071975;28;20003;-79
2021/03/14 09:55:54;;;;;;;;;;;17.00;60.70;;;;;;5067222;28;19916;-79
2021/03/14 09:58:21;;;;;;;;;;;17.10;60.70;;;;;;5065015;28;19916;-79
2021/03/14 10:00:47;;;;;;;;;;;17.00;60.70;;;;;;5067378;28;20305;-79
2021/03/14 10:03:38;;;;;;;;;;;17.10;60.70;;;;;;5066387;28;19913;-78
2021/03/14 10:06:05;;;;;;;;;;;17.10;60.70;;;;;;5065892;28;20362;-79
2021/03/14 10:08:36;;;;;;;;;;;17.10;60.60;;;;;;5067349;28;20337;-79
2021/03/14 10:11:04;;;;;;;;;;;17.10;60.70;;;;;;5067729;28;19912;-78
2021/03/14 10:13:30;;;;;;;;;;;17.00;60.70;;;;;;5068417;28;20007;-78
2021/03/14 10:15:57;;;;;;;;;;;17.00;60.70;;;;;;5068415;28;19913;-80
2021/03/14 10:18:28;;;;;;;;;;;17.00;60.70;;;;;;5052612;28;19919;-78
2021/03/14 10:21:20;;;;;;;;;;;17.00;60.80;;;;;;5067972;28;19913;-79
2021/03/14 10:23:45;;;;;;;;;;;17.00;60.80;;;;;;5062953;28;19925;-78
2021/03/14 10:26:12;;;;;;;;;;;17.00;60.80;;;;;;5066003;28;19970;-78
2021/03/14 10:28:38;;;;;;;;;;;17.00;60.90;;;;;;5052582;28;19966;-78
2021/03/14 10:31:06;;;;;;;;;;;17.00;60.90;;;;;;5045705;28;19921;-78
2021/03/14 10:33:33;;;;;;;;;;;17.00;60.80;;;;;;5032069;28;19913;-77
2021/03/14 10:36:10;;;;;;;;;;;17.00;60.70;;;;;;5034906;28;19912;-78
2021/03/14 10:38:44;;;;;;;;;;;17.10;60.70;;;;;;5045848;28;19913;-76
2021/03/14 10:41:28;;;;;;;;;;;17.10;60.70;;;;;;5014107;28;20239;-78
2021/03/14 10:43:59;;;;;;;;;;;17.10;60.60;;;;;;5031304;28;19916;-78
2021/03/14 10:46:40;;;;;;;;;;;17.10;60.50;;;;;;5033571;28;19921;-78
2021/03/14 10:49:15;;;;;;;;;;;17.10;60.50;;;;;;5035762;28;19920;-77
2021/03/14 10:51:42;;;;;;;;;;;17.10;60.50;;;;;;5031625;28;19913;-78
2021/03/14 10:54:07;;;;;;;;;;;17.10;60.50;;;;;;5045877;28;20015;-77
2021/03/14 10:56:34;;;;;;;;;;;17.10;60.50;;;;;;5046620;28;20008;-77
2021/03/14 10:59:03;;;;;;;;;;;17.10;60.50;;;;;;5048303;28;20336;-77
2021/03/14 11:01:37;;;;;;;;;;;17.10;60.40;;;;;;5031727;28;19995;-77
2021/03/14 11:04:03;;;;;;;;;;;17.10;60.50;;;;;;5032188;28;19913;-78
2021/03/14 11:06:29;;;;;;;;;;;17.10;60.50;;;;;;5034052;28;19920;-79
2021/03/14 11:09:09;;;;;;;;;;;17.10;60.60;;;;;;5034576;28;19913;-78
2021/03/14 11:11:45;;;;;;;;;;;17.10;60.70;;;;;;5031725;28;19928;-78
2021/03/14 11:14:29;;;;;;;;;;;17.00;60.70;;;;;;5026307;28;19991;-78
2021/03/14 11:17:03;;;;;;;;;;;17.00;60.80;;;;;;5047986;28;19977;-80
2021/03/14 11:19:29;;;;;;;;;;;17.10;60.80;;;;;;5033007;28;19909;-80
2021/03/14 11:22:00;;;;;;;;;;;17.10;60.70;;;;;;5046615;28;20007;-80
2021/03/14 11:24:26;;;;;;;;;;;17.20;60.60;;;;;;5044577;28;20632;-79
2021/03/14 11:26:52;;;;;;;;;;;17.20;60.50;;;;;;5024879;28;20058;-79
2021/03/14 11:29:18;;;;;;;;;;;17.20;60.50;;;;;;5025505;28;19928;-79
2021/03/14 11:31:43;;;;;;;;;;;17.20;60.50;;;;;;5044119;28;19999;-78
2021/03/14 11:34:09;;;;;;;;;;;17.10;60.60;;;;;;5044822;28;20396;-79
2021/03/14 11:36:34;;;;;;;;;;;17.10;60.60;;;;;;5047795;28;19909;-78
2021/03/14 11:39:00;;;;;;;;;;;17.20;60.80;;;;;;5046250;28;19917;-79
2021/03/14 11:41:25;;;;;;;;;;;17.20;60.90;;;;;;5024688;28;19909;-79
2021/03/14 11:43:51;;;;;;;;;;;17.30;60.70;;;;;;5025587;28;19921;-79
2021/03/14 11:46:16;;;;;;;;;;;17.30;60.80;;;;;;5045299;28;19920;-78
2021/03/14 11:48:42;;;;;;;;;;;17.30;60.80;;;;;;5049459;28;19923;-79
2021/03/14 11:51:07;;;;;;;;;;;17.30;60.80;;;;;;5031876;28;19939;-76
2021/03/14 11:53:33;;;;;;;;;;;17.30;61.00;;;;;;5033178;28;19916;-76
2021/03/14 11:55:59;;;;;;;;;;;17.30;61.40;;;;;;5030844;28;20257;-73
2021/03/14 11:58:24;;;;;;;;;;;17.30;61.30;;;;;;5044196;28;19924;-78
2021/03/14 12:00:50;;;;;;;;;;;17.30;61.30;;;;;;5045590;28;19947;-75
2021/03/14 12:03:16;;;;;;;;;;;17.30;61.30;;;;;;5043551;28;19925;-86
2021/03/14 12:05:41;;;;;;;;;;;17.30;61.40;;;;;;5028244;28;20419;-77
2021/03/14 12:08:08;;;;;;;;;;;17.20;61.40;;;;;;5047270;28;19935;-76
2021/03/14 12:10:36;;;;;;;;;;;17.30;61.30;;;;;;5033847;28;19916;-75
2021/03/14 12:13:11;;;;;;;;;;;17.30;61.20;;;;;;5032926;28;19915;-76
2021/03/14 12:15:37;;;;;;;;;;;17.30;61.10;;;;;;5049249;28;20416;-78
2021/03/14 12:18:03;;;;;;;;;;;17.30;60.90;;;;;;5032379;28;19991;-77
2021/03/14 12:20:28;;;;;;;;;;;17.30;60.90;;;;;;5033702;28;19916;-80
2021/03/14 12:22:57;;;;;;;;;;;17.30;61.00;;;;;;5048344;28;20350;-77
2021/03/14 12:25:24;;;;;;;;;;;17.20;61.00;;;;;;5045225;28;19913;-78
2021/03/14 12:27:50;;;;;;;;;;;17.20;61.10;;;;;;5047080;28;19947;-77
2021/03/14 12:30:15;;;;;;;;;;;17.20;61.30;;;;;;5039968;28;20371;-78
2021/03/14 12:32:41;;;;;;;;;;;17.10;61.50;;;;;;5044892;28;19908;-79
2021/03/14 12:35:14;;;;;;;;;;;17.10;61.60;;;;;;5067691;28;19908;-77
2021/03/14 12:37:40;;;;;;;;;;;17.00;61.60;;;;;;5045644;28;19936;-77
2021/03/14 12:40:06;;;;;;;;;;;17.10;61.50;;;;;;5052307;28;20014;-77
2021/03/14 12:42:32;;;;;;;;;;;17.10;61.50;;;;;;5049151;28;19927;-77
2021/03/14 12:45:05;;;;;;;;;;;17.10;61.40;;;;;;5063106;28;20007;-75
2021/03/14 12:47:30;;;;;;;;;;;17.20;61.30;;;;;;5063250;28;19935;-77
2021/03/14 12:49:58;;;;;;;;;;;17.20;61.20;;;;;;5066789;28;19913;-78
2021/03/14 12:52:24;;;;;;;;;;;17.20;61.20;;;;;;5069312;28;19908;-76
2021/03/14 12:54:49;;;;;;;;;;;17.20;61.20;;;;;;5057968;28;20415;-75
2021/03/14 12:57:20;;;;;;;;;;;17.20;61.20;;;;;;5050303;28;19921;-76
2021/03/14 12:59:46;;;;;;;;;;;17.20;61.20;;;;;;5061271;28;19924;-81
2021/03/14 13:02:12;;;;;;;;;;;17.20;61.20;;;;;;5045598;28;19908;-78
2021/03/14 13:04:37;;;;;;;;;;;17.30;61.10;;;;;;5066784;28;19916;-78
2021/03/14 13:07:03;;;;;;;;;;;17.20;61.20;;;;;;5055456;28;19919;-78
2021/03/14 13:09:28;;;;;;;;;;;17.20;61.20;;;;;;5065448;28;20231;-78
2021/03/14 13:12:04;;;;;;;;;;;17.10;61.30;;;;;;5063126;28;19959;-78
2021/03/14 13:14:30;;;;;;;;;;;17.20;61.30;;;;;;5062850;28;20292;-77
2021/03/14 13:16:55;;;;;;;;;;;17.20;61.30;;;;;;5063486;28;19923;-78
2021/03/14 13:19:21;;;;;;;;;;;17.20;61.20;;;;;;5065058;28;19913;-78
2021/03/14 13:21:56;;;;;;;;;;;17.20;61.20;;;;;;5055986;28;19920;-78
2021/03/14 13:24:21;;;;;;;;;;;17.30;61.20;;;;;;5059868;28;19919;-78
2021/03/14 13:26:47;;;;;;;;;;;17.20;61.10;;;;;;5055039;28;19916;-77
2021/03/14 13:29:12;;;;;;;;;;;17.30;61.00;;;;;;5049448;28;19922;-77
2021/03/14 13:31:41;;;;;;;;;;;17.30;61.10;;;;;;5051950;28;20003;-79
2021/03/14 13:34:12;;;;;;;;;;;17.20;61.20;;;;;;5051833;28;19908;-78
2021/03/14 13:36:43;;;;;;;;;;;17.10;61.30;;;;;;5053210;28;19913;-79
2021/03/14 13:39:11;;;;;;;;;;;17.20;61.40;;;;;;5072309;28;19921;-77
2021/03/14 13:41:37;;;;;;;;;;;17.10;61.40;;;;;;5054279;28;19916;-78
2021/03/14 13:44:02;;;;;;;;;;;17.20;61.40;;;;;;5059783;28;20361;-78
2021/03/14 13:46:29;;;;;;;;;;;17.10;61.40;;;;;;5061860;28;20432;-77
2021/03/14 13:48:54;;;;;;;;;;;17.10;61.40;;;;;;5069313;28;19921;-79
2021/03/14 13:51:20;;;;;;;;;;;17.10;61.40;;;;;;5071181;28;20345;-77
2021/03/14 13:53:45;;;;;;;;;;;17.10;61.40;;;;;;5052427;28;20285;-78
2021/03/14 13:56:11;;;;;;;;;;;17.10;61.40;;;;;;5070841;28;19915;-79
2021/03/14 13:58:37;;;;;;;;;;;17.20;61.30;;;;;;5042050;28;19982;-78
2021/03/14 14:01:11;;;;;;;;;;;17.20;61.30;;;;;;5044725;28;19919;-78
2021/03/14 14:03:37;;;;;;;;;;;17.10;61.30;;;;;;5079970;28;19912;-78
2021/03/14 14:06:03;;;;;;;;;;;17.10;61.30;;;;;;5048189;28;19913;-79
2021/03/14 14:08:29;;;;;;;;;;;17.10;61.40;;;;;;5051304;28;19921;-79
2021/03/14 14:10:55;;;;;;;;;;;17.10;61.50;;;;;;5069328;28;19946;-79
2021/03/14 14:13:21;;;;;;;;;;;17.10;61.60;;;;;;5066528;28;19920;-79
2021/03/14 14:16:03;;;;;;;;;;;17.00;61.80;;;;;;5065504;28;19908;-79
2021/03/14 14:18:48;;;;;;;;;;;17.00;61.90;;;;;;5053241;28;19915;-79
2021/03/14 14:21:24;;;;;;;;;;;16.90;62.00;;;;;;5067228;28;19970;-79
2021/03/14 14:23:58;;;;;;;;;;;16.90;62.10;;;;;;5050294;28;19913;-79